Townsend, MT

3:35 PM MST on December 21, 2014 (GMT -0700)
RAWS GINGER MT US | Change Station
CLOSE
Current Station
Personal Weather Station
Location: Winston, MT
Elevation: 4370 ft
Nearby Weather Stations

Elev 4370 ft 46.33 °N, 111.59 °W | Updated 32 minutes ago

Mostly Cloudy
Mostly Cloudy
42 °F
Feels Like 31 °F
N
32
Wind Variable Wind from West
Gusts 55.0 mph

Today
High -- | Low -- °F
--% Chance of Precip.
Yesterday
High -- | Low -- °F
Precip. -- in
8:06 AM 4:42 PM
Waning Crescent, 0% visible
Pressure 29.65 in
Visibility 10.0 miles
Clouds Clear
Windchill 31 °F
Dew Point 19 °F
Humidity 40%
Rainfall 0.02 in
Snow Depth Not available.
UV 1 out of 12
Pollen .10 out of 12
Air Quality Not available.
Flu Activity Not available.
METAR KHLN 212153Z 26025G37KT 10SM CLR 06/M03 A2956 RMK AO2 PK WND 27038/2055 SLP038 T00611033

More Conditions Fewer Conditions

Pressure 29.65 in
Visibility 10.0 miles
Clouds Clear
Windchill 31 °F
Dew Point 19 °F
Humidity 40%
Rainfall 0.02 in
Snow Depth Not available.
UV 1 out of 12
Pollen .10 out of 12
Air Quality Not available.
Flu Activity Not available.
METAR KHLN 212153Z 26025G37KT 10SM CLR 06/M03 A2956 RMK AO2 PK WND 27038/2055 SLP038 T00611033

More Conditions Fewer Conditions

10-Day Weather Forecast

Almanac

Astronomy

Dec. 21, 2014 Rise Set
Actual Time
Civil Twilight
Nautical Twilight
Astronomical Twilight
Moon
Length of Visible Light
Length of Day
Tomorrow will be .
, % of the Moon is Illuminated

Today's Extremes

State Highs State Lows

Community

WunderPhotos

Upload Photos

1,779,499 photos uploaded!

WunderBlogs® & News

Nearby

Air Quality

  Air Quality AQ Index Pollutant
Not available.

Snow Depth

Station Depth Elevation

Earthquake Activity

City Distance Mag. Time & Date
Minimum magnitude displayed is 2.5.

Coastal Water Temperatures

Place Temperature

Nearby Weather Stations